Terminal Aerodrome Forecast
Issued by NWS

Home | Current Version | Previous Version | Text Only | Print | Product List | Glossary On
Versions: 1 2 3 4 5 6 7 8 9 10 11 12 13 14 15 16 17 18
578
FTUS42 KMHX 301142 AAA
TAFPGV
TAF AMD
KPGV 301142Z 3012/0112 10005KT 1/2SM FG BKN002
     FM301300 11005KT 2SM BR BKN007
     FM301400 13006KT 3SM BR SCT015 BKN040
     FM301500 14007KT P6SM VCSH SCT030 BKN070
     FM302100 17008KT P6SM SCT070
     FM010800 00000KT 3SM BR SCT250
      AMD LTD TO CLD VIS AND WIND=

USA.gov is the U.S. government's official web portal to all federal, state and local government web resources and services.